Time;durP1;ratioP1;P1;durP2;ratioP2;P2;SDS_P1;SDS_P2;PMS_P1;PMS_P2;Temp;Humidity;BMP_temperature;BMP_pressure;BME280_temperature;BME280_humidity;BME280_pressure;Samples;Min_cycle;Max_cycle;Signal;HPM_P1;HPM_P2
2022/06/24 06:03:16;;;;;;;0.30;0.30;;;;;;;;;;5071718;28;20417;-77
2022/06/24 06:05:42;;;;;;;0.10;0.10;;;;;;;;;;5071377;28;20095;-77
2022/06/24 06:08:10;;;;;;;0.38;0.38;;;;;;;;;;5071657;28;20044;-76
2022/06/24 06:10:37;;;;;;;0.47;0.47;;;;;;;;;;5072051;28;20079;-76
2022/06/24 06:13:03;;;;;;;0.10;0.10;;;;;;;;;;5071317;28;20120;-77
2022/06/24 06:15:30;;;;;;;0.25;0.25;;;;;;;;;;5071682;28;20045;-77
2022/06/24 06:17:56;;;;;;;0.20;0.20;;;;;;;;;;5071725;28;20036;-77
2022/06/24 06:20:22;;;;;;;0.40;0.40;;;;;;;;;;5071576;28;20045;-77
2022/06/24 06:22:48;;;;;;;0.57;0.57;;;;;;;;;;5071328;28;20068;-77
2022/06/24 06:25:15;;;;;;;0.52;0.45;;;;;;;;;;5071213;28;20044;-77
2022/06/24 06:27:41;;;;;;;0.10;0.10;;;;;;;;;;5071234;28;20403;-77
2022/06/24 06:30:08;;;;;;;0.35;0.35;;;;;;;;;;5071089;28;20040;-77
2022/06/24 06:32:34;;;;;;;0.25;0.25;;;;;;;;;;5071606;28;20094;-77
2022/06/24 06:35:00;;;;;;;0.10;0.10;;;21.10;99.90;;;;;;5071879;28;20045;-75
2022/06/24 06:37:25;;;;;;;0.20;0.20;;;22.10;99.90;;;;;;5070968;28;20501;-75
2022/06/24 06:39:51;;;;;;;0.10;0.10;;;22.10;99.90;;;;;;5070928;28;20037;-75
2022/06/24 06:42:17;;;;;;;0.40;0.22;;;22.10;99.90;;;;;;5071325;28;20060;-76
2022/06/24 06:44:43;;;;;;;0.32;0.32;;;21.30;99.90;;;;;;5071716;28;20045;-76
2022/06/24 06:47:08;;;;;;;0.10;0.10;;;21.00;99.90;;;;;;5071058;28;20087;-75
2022/06/24 06:49:34;;;;;;;0.32;0.32;;;20.50;99.90;;;;;;5071309;28;20048;-76
2022/06/24 06:52:00;;;;;;;0.28;0.28;;;20.10;99.90;;;;;;5070860;28;20128;-75
2022/06/24 06:54:26;;;;;;;0.50;0.50;;;19.90;99.90;;;;;;5070625;28;20041;-77
2022/06/24 06:56:52;;;;;;;0.10;0.10;;;19.60;99.90;;;;;;5070513;28;20035;-77
2022/06/24 06:59:18;;;;;;;0.10;0.10;;;18.30;99.90;;;;;;5070783;28;20090;-77
2022/06/24 07:01:44;;;;;;;0.22;0.22;;;17.90;99.90;;;;;;5069014;28;20522;-76
2022/06/24 07:04:10;;;;;;;0.30;0.30;;;17.40;99.90;;;;;;5070003;28;20124;-76
2022/06/24 07:06:36;;;;;;;0.20;0.20;;;17.50;99.90;;;;;;5070667;28;20494;-76
2022/06/24 07:09:02;;;;;;;0.10;0.10;;;17.20;99.90;;;;;;5071534;28;20037;-76
2022/06/24 07:11:28;;;;;;;0.40;0.40;;;17.00;99.90;;;;;;5084904;28;20411;-76
2022/06/24 07:13:55;;;;;;;0.10;0.10;;;;;;;;;;5072058;28;20033;-76
2022/06/24 07:16:21;;;;;;;0.25;0.25;;;17.10;99.90;;;;;;5056953;28;20049;-77
2022/06/24 07:18:46;;;;;;;0.10;0.10;;;17.40;99.90;;;;;;5056689;28;20503;-76
2022/06/24 07:21:13;;;;;;;0.52;0.47;;;17.40;99.90;;;;;;5062511;28;20047;-76
2022/06/24 07:23:40;;;;;;;0.20;0.20;;;17.50;99.90;;;;;;5074939;28;20043;-76
2022/06/24 07:26:06;;;;;;;0.10;0.10;;;17.50;99.90;;;;;;5075195;28;20086;-75
2022/06/24 07:28:36;;;;;;;0.22;0.22;;;17.50;99.90;;;;;;5076624;28;20490;-76
2022/06/24 07:31:18;;;;;;;0.10;0.10;;;17.50;99.90;;;;;;5076558;28;20522;-76
2022/06/24 07:33:45;;;;;;;0.17;0.17;;;17.60;99.90;;;;;;5076273;28;20036;-77
2022/06/24 07:36:11;;;;;;;0.10;0.10;;;18.10;99.90;;;;;;5052742;28;20042;-78
2022/06/24 07:38:37;;;;;;;0.10;0.10;;;18.80;99.90;;;;;;5035729;28;20045;-77
2022/06/24 07:41:04;;;;;;;0.10;0.10;;;19.10;99.90;;;;;;5035626;28;20049;-78
2022/06/24 07:43:29;;;;;;;0.10;0.10;;;19.70;99.90;;;;;;5035794;28;20042;-77
2022/06/24 07:45:55;;;;;;;0.10;0.10;;;21.00;99.90;;;;;;5035718;28;20041;-77
2022/06/24 07:48:22;;;;;;;0.10;0.10;;;21.20;99.90;;;;;;5035853;28;20400;-76
2022/06/24 07:50:48;;;;;;;0.10;0.10;;;21.90;99.90;;;;;;5036121;28;20043;-77
2022/06/24 07:53:15;;;;;;;0.10;0.10;;;22.00;99.90;;;;;;5035452;28;20080;-78
2022/06/24 07:58:25;;;;;;;0.10;0.10;;;22.10;99.90;;;;;;5035256;28;20116;-76
2022/06/24 08:00:51;;;;;;;0.10;0.10;;;22.30;99.90;;;;;;5035026;28;20068;-77
2022/06/24 08:03:17;;;;;;;0.10;0.10;;;22.80;99.90;;;;;;5035863;28;20523;-77
2022/06/24 08:05:43;;;;;;;0.10;0.10;;;23.20;99.90;;;;;;5035454;28;20083;-77
2022/06/24 08:08:09;;;;;;;0.13;0.13;;;23.60;99.90;;;;;;5035853;28;20033;-77
2022/06/24 08:10:36;;;;;;;0.10;0.10;;;23.50;99.90;;;;;;5035728;28;20037;-77
2022/06/24 08:13:02;;;;;;;0.10;0.10;;;23.00;99.90;;;;;;5034693;28;20046;-77
2022/06/24 08:15:27;;;;;;;0.10;0.10;;;23.00;99.90;;;;;;5035774;28;20042;-77
2022/06/24 08:17:53;;;;;;;0.10;0.10;;;23.40;99.90;;;;;;5035583;28;20126;-77
2022/06/24 08:20:19;;;;;;;0.43;0.43;;;23.40;99.90;;;;;;5035295;28;20068;-78
2022/06/24 08:22:45;;;;;;;0.10;0.10;;;23.10;99.90;;;;;;5035400;28;20041;-77
2022/06/24 08:25:11;;;;;;;0.10;0.10;;;23.00;99.90;;;;;;5034830;28;20038;-77
2022/06/24 08:27:37;;;;;;;0.00;0.00;;;23.00;99.90;;;;;;5034190;28;20042;-77
2022/06/24 08:30:04;;;;;;;0.00;0.00;;;22.90;99.90;;;;;;5035655;28;20550;-76
2022/06/24 08:32:30;;;;;;;0.10;0.10;;;23.00;99.90;;;;;;5035843;28;20068;-76
2022/06/24 08:34:56;;;;;;;0.10;0.10;;;23.00;99.90;;;;;;5034481;28;20045;-76
2022/06/24 08:37:21;;;;;;;0.10;0.10;;;23.20;99.90;;;;;;5035814;28;20032;-76
2022/06/24 08:39:47;;;;;;;0.10;0.10;;;23.10;99.90;;;;;;5036287;28;20435;-76
2022/06/24 08:42:13;;;;;;;0.10;0.10;;;22.70;99.90;;;;;;5036150;28;20063;-76
2022/06/24 08:44:40;;;;;;;0.10;0.10;;;22.80;99.90;;;;;;5035622;28;20033;-76
2022/06/24 08:47:06;;;;;;;0.10;0.10;;;22.50;99.90;;;;;;5035885;28;20057;-77
2022/06/24 08:49:33;;;;;;;0.10;0.10;;;22.80;99.90;;;;;;5035605;28;20484;-76
2022/06/24 08:52:00;;;;;;;0.10;0.10;;;23.20;99.90;;;;;;5035386;28;20144;-76
2022/06/24 08:54:30;;;;;;;0.10;0.10;;;23.60;99.90;;;;;;5035775;28;20063;-76
2022/06/24 08:56:57;;;;;;;0.10;0.10;;;23.50;99.90;;;;;;5035686;28;20114;-76
2022/06/24 08:59:23;;;;;;;0.10;0.10;;;23.30;99.90;;;;;;5035592;28;20343;-76
2022/06/24 09:01:49;;;;;;;0.10;0.10;;;23.60;99.90;;;;;;5053847;28;20132;-76
2022/06/24 09:04:15;;;;;;;0.10;0.10;;;23.60;99.90;;;;;;5054473;28;20037;-76
2022/06/24 09:06:42;;;;;;;0.43;0.15;;;23.60;99.90;;;;;;5054980;28;20044;-76
2022/06/24 09:09:08;;;;;;;0.10;0.10;;;23.60;99.90;;;;;;5055161;28;20090;-76
2022/06/24 09:11:39;;;;;;;0.20;0.20;;;23.50;99.90;;;;;;5054825;28;20048;-76
2022/06/24 09:14:06;;;;;;;0.10;0.10;;;23.40;99.90;;;;;;5054984;28;20064;-76
2022/06/24 09:16:37;;;;;;;0.13;0.13;;;23.30;99.90;;;;;;5055803;28;20033;-76
2022/06/24 09:19:05;;;;;;;0.10;0.10;;;22.80;99.90;;;;;;5055024;28;20045;-76
2022/06/24 09:21:39;;;;;;;0.10;0.10;;;22.50;99.90;;;;;;5054740;28;20052;-77
2022/06/24 09:24:06;;;;;;;0.10;0.10;;;22.50;99.90;;;;;;5054869;28;20037;-77
2022/06/24 09:26:37;;;;;;;0.10;0.10;;;22.20;99.90;;;;;;5054585;28;20120;-77
2022/06/24 09:29:04;;;;;;;;;;;22.00;99.90;;;;;;5055314;28;20025;-77
2022/06/24 09:31:34;;;;;;;0.20;0.20;;;21.90;99.90;;;;;;5054876;28;20390;-77
2022/06/24 09:34:07;;;;;;;0.10;0.10;;;21.70;99.90;;;;;;5054600;28;20036;-77
2022/06/24 09:36:34;;;;;;;0.40;0.40;;;21.70;99.90;;;;;;5047202;28;20084;-76
2022/06/24 09:39:09;;;;;;;0.10;0.10;;;21.60;99.90;;;;;;5033669;28;20530;-76
2022/06/24 09:41:46;;;;;;;0.10;0.10;;;19.50;99.90;;;;;;5033937;28;20128;-75
2022/06/24 09:44:13;;;;;;;0.10;0.10;;;19.00;99.90;;;;;;5033573;28;20040;-76
2022/06/24 09:46:39;;;;;;;0.10;0.10;;;18.70;99.90;;;;;;5033513;28;20068;-76
2022/06/24 09:49:07;;;;;;;0.10;0.10;;;18.40;99.90;;;;;;5034049;28;20142;-76
2022/06/24 09:51:33;;;;;;;0.10;0.10;;;18.40;99.90;;;;;;5034047;28;20037;-76
2022/06/24 09:53:59;;;;;;;0.10;0.10;;;18.30;99.90;;;;;;5033326;28;20041;-76
2022/06/24 09:56:26;;;;;;;0.10;0.10;;;18.40;99.90;;;;;;5033946;28;20115;-76
2022/06/24 10:01:40;;;;;;;0.10;0.10;;;18.50;99.90;;;;;;5033332;28;20099;-77
2022/06/24 10:04:13;;;;;;;0.20;0.20;;;18.40;99.90;;;;;;5033695;28;20041;-76
2022/06/24 10:06:43;;;;;;;0.10;0.10;;;18.50;99.90;;;;;;5033712;28;20495;-75
2022/06/24 10:09:10;;;;;;;0.10;0.10;;;18.50;99.90;;;;;;5033200;28;20503;-75
2022/06/24 10:11:38;;;;;;;0.10;0.10;;;18.40;99.90;;;;;;5033940;28;20045;-76
2022/06/24 10:14:03;;;;;;;0.20;0.20;;;18.40;99.90;;;;;;5032650;28;20496;-76
2022/06/24 10:16:29;;;;;;;0.10;0.10;;;18.30;99.90;;;;;;5033759;28;20098;-75
2022/06/24 10:18:57;;;;;;;0.20;0.20;;;17.70;99.90;;;;;;5033588;28;20515;-76
2022/06/24 10:21:24;;;;;;;0.20;0.20;;;17.70;99.90;;;;;;5031782;28;20052;-78
2022/06/24 10:23:51;;;;;;;0.15;0.15;;;17.60;99.90;;;;;;5033553;28;20034;-77
2022/06/24 10:26:25;;;;;;;0.10;0.10;;;17.50;99.90;;;;;;5033489;28;20037;-77
2022/06/24 10:29:03;;;;;;;0.10;0.10;;;17.50;99.90;;;;;;5033155;28;20044;-76
2022/06/24 10:31:52;;;;;;;0.10;0.10;;;17.40;99.90;;;;;;5032883;28;20495;-78
2022/06/24 10:34:29;;;;;;;0.70;0.20;;;17.40;99.90;;;;;;5033573;28;20063;-76
2022/06/24 10:37:24;;;;;;;0.10;0.10;;;17.60;99.90;;;;;;5033167;28;20516;-76
2022/06/24 10:39:55;;;;;;;0.10;0.10;;;17.20;99.90;;;;;;5032941;28;20033;-75
2022/06/24 10:42:22;;;;;;;0.25;0.25;;;17.50;99.90;;;;;;5033773;28;20128;-76
2022/06/24 10:45:01;;;;;;;0.10;0.10;;;17.30;99.90;;;;;;5032644;28;20128;-76
2022/06/24 10:47:30;;;;;;;0.20;0.20;;;17.40;99.90;;;;;;5031966;28;20416;-76
2022/06/24 10:50:04;;;;;;;0.10;0.10;;;17.60;99.90;;;;;;5036964;28;20043;-76
2022/06/24 10:52:35;;;;;;;0.10;0.10;;;17.30;99.90;;;;;;5036464;28;20037;-75
2022/06/24 10:55:24;;;;;;;0.55;0.38;;;17.40;99.90;;;;;;5037507;28;20037;-77
2022/06/24 10:57:52;;;;;;;0.20;0.20;;;17.50;99.90;;;;;;5036360;28;20034;-77
2022/06/24 11:00:25;;;;;;;0.10;0.10;;;17.60;99.90;;;;;;5036221;28;20526;-77
2022/06/24 11:03:03;;;;;;;0.10;0.10;;;17.60;99.90;;;;;;5036613;28;20508;-76
2022/06/24 11:05:40;;;;;;;0.10;0.10;;;17.60;1.00;;;;;;5036328;28;20091;-76
2022/06/24 11:08:14;;;;;;;0.10;0.10;;;17.60;1.00;;;;;;5036785;28;20561;-76
2022/06/24 11:10:41;;;;;;;0.10;0.10;;;17.70;1.00;;;;;;5036459;28;20068;-77
2022/06/24 11:13:08;;;;;;;0.10;0.10;;;17.60;1.00;;;;;;5036249;28;20187;-76
2022/06/24 11:15:48;;;;;;;0.10;0.10;;;17.40;1.00;;;;;;5036919;28;20037;-76
2022/06/24 11:18:20;;;;;;;0.10;0.10;;;17.60;1.00;;;;;;5036276;28;20050;-77
2022/06/24 11:20:51;;;;;;;0.20;0.20;;;17.80;1.00;;;;;;5035050;28;20036;-76
2022/06/24 11:23:18;;;;;;;0.10;0.10;;;17.80;1.00;;;;;;5036621;28;20056;-76
2022/06/24 11:26:08;;;;;;;0.90;0.55;;;17.80;1.00;;;;;;5035366;28;20034;-76
2022/06/24 11:28:36;;;;;;;0.10;0.10;;;17.70;1.00;;;;;;5037213;28;20045;-76
2022/06/24 11:31:21;;;;;;;0.20;0.20;;;17.90;1.00;;;;;;5037350;28;20056;-76
2022/06/24 11:34:09;;;;;;;0.30;0.30;;;17.90;1.00;;;;;;5037150;28;20095;-76
2022/06/24 11:36:37;;;;;;;0.10;0.10;;;18.10;1.00;;;;;;5036579;28;20099;-76
2022/06/24 11:39:07;;;;;;;0.20;0.20;;;17.80;1.00;;;;;;5036547;28;20033;-76
2022/06/24 11:41:38;;;;;;;0.10;0.10;;;18.20;1.00;;;;;;5036924;28;20049;-76
2022/06/24 11:44:04;;;;;;;0.20;0.20;;;18.10;1.00;;;;;;5036548;28;20132;-76
2022/06/24 11:46:32;;;;;;;0.10;0.10;;;17.90;1.00;;;;;;5036460;28;20512;-76
2022/06/24 11:49:11;;;;;;;0.28;0.28;;;18.20;1.00;;;;;;5036374;28;20045;-76
2022/06/24 11:51:38;;;;;;;0.20;0.20;;;;;;;;;;5036546;28;20053;-76
2022/06/24 11:54:05;;;;;;;0.20;0.20;;;;;;;;;;5036592;28;20484;-76
2022/06/24 11:56:33;;;;;;;0.10;0.10;;;;;;;;;;5037375;28;20029;-78
2022/06/24 11:59:00;;;;;;;0.30;0.30;;;;;;;;;;5047330;28;20044;-75
2022/06/24 12:01:27;;;;;;;0.57;0.57;;;;;;;;;;5055725;28;20094;-78
2022/06/24 12:03:54;;;;;;;1.30;0.73;;;;;;;;;;5056799;28;20135;-76
2022/06/24 12:06:20;;;;;;;0.10;0.10;;;;;;;;;;5057209;28;20067;-78
2022/06/24 12:08:47;;;;;;;0.10;0.10;;;;;;;;;;5056377;28;20037;-78
2022/06/24 12:11:15;;;;;;;0.35;0.35;;;;;;;;;;5056535;28;20033;-78
2022/06/24 12:13:41;;;;;;;0.10;0.10;;;;;;;;;;5056277;28;20476;-78
2022/06/24 12:16:07;;;;;;;0.10;0.10;;;;;;;;;;5056441;28;20041;-78
2022/06/24 12:18:34;;;;;;;0.30;0.25;;;;;;;;;;5056426;28;20066;-78
2022/06/24 12:21:07;;;;;;;1.00;0.30;;;;;;;;;;5056154;28;20124;-79
2022/06/24 12:23:34;;;;;;;0.10;0.10;;;;;;;;;;5055621;28;20052;-75
2022/06/24 12:26:04;;;;;;;0.20;0.20;;;;;;;;;;5055199;28;20037;-78
2022/06/24 12:28:30;;;;;;;;;;;;;;;;;;5036864;28;20095;-77
2022/06/24 12:31:04;;;;;;;0.45;0.45;;;;;;;;;;5036821;28;19963;-78
2022/06/24 12:33:32;;;;;;;0.10;0.10;;;;;;;;;;5036058;28;20515;-78
2022/06/24 12:36:04;;;;;;;0.10;0.10;;;;;;;;;;5036085;28;20029;-78
2022/06/24 12:38:30;;;;;;;0.20;0.20;;;;;;;;;;5043439;28;20044;-77
2022/06/24 12:41:07;;;;;;;0.25;0.25;;;;;;;;;;5055967;28;20368;-78
2022/06/24 12:43:33;;;;;;;0.20;0.20;;;;;;;;;;5055633;28;20037;-78
2022/06/24 12:45:59;;;;;;;0.15;0.15;;;;;;;;;;5054978;28;20120;-77
2022/06/24 12:51:12;;;;;;;0.30;0.30;;;;;;;;;;5054461;28;20036;-75
2022/06/24 12:53:38;;;;;;;0.45;0.45;;;;;;;;;;5054231;28;20037;-78
2022/06/24 12:56:04;;;;;;;0.13;0.13;;;;;;;;;;5054056;28;20044;-78
2022/06/24 12:58:30;;;;;;;0.40;0.40;;;;;;;;;;5047683;28;20110;-78
2022/06/24 13:00:58;;;;;;;0.10;0.10;;;;;;;;;;5056918;28;20045;-78
2022/06/24 13:03:24;;;;;;;0.20;0.20;;;;;;;;;;5063445;28;20051;-78
2022/06/24 13:05:50;;;;;;;0.20;0.20;;;;;;;;;;5056737;28;20119;-78
2022/06/24 13:08:16;;;;;;;0.17;0.17;;;;;;;;;;5053974;28;20065;-78
2022/06/24 13:10:43;;;;;;;0.30;0.30;;;;;;;;;;5054136;28;20072;-77
2022/06/24 13:13:09;;;;;;;0.15;0.15;;;;;;;;;;5054272;28;20094;-78
2022/06/24 13:15:35;;;;;;;0.20;0.20;;;;;;;;;;5054570;28;20049;-78
2022/06/24 13:18:01;;;;;;;0.10;0.10;;;;;;;;;;5054322;28;20126;-78
2022/06/24 13:20:27;;;;;;;0.17;0.17;;;;;;;;;;5054006;28;20049;-77
2022/06/24 13:22:54;;;;;;;0.13;0.13;;;;;;;;;;5053753;28;20048;-78
2022/06/24 13:25:20;;;;;;;0.20;0.20;;;;;;;;;;5054039;28;20068;-77
2022/06/24 13:27:48;;;;;;;0.20;0.20;;;;;;;;;;5054642;28;20586;-78
2022/06/24 13:30:14;;;;;;;0.10;0.10;;;;;;;;;;5053331;28;20116;-77
2022/06/24 13:32:40;;;;;;;0.10;0.10;;;;;;;;;;5054791;28;20044;-78
2022/06/24 13:35:07;;;;;;;0.20;0.20;;;;;;;;;;5053927;28;20049;-77
2022/06/24 13:37:33;;;;;;;0.10;0.10;;;;;;;;;;5054583;28;20040;-77
2022/06/24 13:39:59;;;;;;;0.22;0.22;;;;;;;;;;5054224;28;20068;-78
2022/06/24 13:42:25;;;;;;;0.25;0.25;;;;;;;;;;5054271;28;20053;-78
2022/06/24 13:44:52;;;;;;;0.20;0.20;;;;;;;;;;5054298;28;20048;-77
2022/06/24 13:47:18;;;;;;;0.10;0.10;;;;;;;;;;5053680;28;20044;-77
2022/06/24 13:49:44;;;;;;;0.20;0.20;;;;;;;;;;5054015;28;20484;-78
2022/06/24 13:52:10;;;;;;;0.15;0.15;;;;;;;;;;5053155;28;20049;-77
2022/06/24 13:54:36;;;;;;;0.22;0.22;;;;;;;;;;5052070;28;20045;-77
2022/06/24 13:57:03;;;;;;;0.30;0.30;;;;;;;;;;5064157;28;20118;-78
2022/06/24 13:59:29;;;;;;;0.30;0.30;;;;;;;;;;5052988;28;20044;-78
2022/06/24 14:01:55;;;;;;;0.20;0.20;;;;;;;;;;5053921;28;20053;-77
2022/06/24 14:04:21;;;;;;;0.20;0.20;;;;;;;;;;5054225;28;20041;-77
2022/06/24 14:06:47;;;;;;;0.20;0.20;;;;;;;;;;5054225;28;20041;-77
2022/06/24 14:09:13;;;;;;;0.20;0.20;;;;;;;;;;5054648;28;20518;-78
2022/06/24 14:11:39;;;;;;;0.15;0.15;;;;;;;;;;5054260;28;20156;-78
2022/06/24 14:14:05;;;;;;;0.30;0.30;;;;;;;;;;5053785;28;20045;-78
2022/06/24 14:16:31;;;;;;;0.10;0.10;;;;;;;;;;5053721;28;20094;-78
2022/06/24 14:18:59;;;;;;;0.20;0.20;;;;;;;;;;5053738;28;20048;-79
2022/06/24 14:21:26;;;;;;;0.10;0.10;;;;;;;;;;5054534;28;20040;-76
2022/06/24 14:26:37;;;;;;;0.10;0.10;;;;;;;;;;5057632;28;20060;-78
2022/06/24 14:29:03;;;;;;;0.10;0.10;;;;;;;;;;5057943;28;20029;-78
2022/06/24 14:31:29;;;;;;;0.20;0.20;;;;;;;;;;5058208;28;20051;-78
2022/06/24 14:33:56;;;;;;;0.63;0.63;;;;;;;;;;5058070;28;20456;-79
2022/06/24 14:36:22;;;;;;;0.10;0.10;;;;;;;;;;5057066;28;20041;-77
2022/06/24 14:41:32;;;;;;;0.35;0.35;;;;;;;;;;5063126;28;20141;-78
2022/06/24 14:43:58;;;;;;;1.05;0.38;;;;;;;;;;5057226;28;20548;-79
2022/06/24 14:46:25;;;;;;;0.20;0.20;;;;;;;;;;5058006;28;20041;-78
2022/06/24 14:48:51;;;;;;;0.40;0.40;;;;;;;;;;5057312;28;20033;-79
2022/06/24 14:51:17;;;;;;;0.13;0.13;;;;;;;;;;5056737;28;20042;-79
2022/06/24 14:53:43;;;;;;;0.10;0.10;;;;;;;;;;5057624;28;20090;-79
2022/06/24 14:56:09;;;;;;;0.30;0.30;;;;;;;;;;5057853;28;20505;-77
2022/06/24 14:58:35;;;;;;;0.10;0.10;;;;;;;;;;5057365;28;20215;-78
2022/06/24 15:01:02;;;;;;;0.10;0.10;;;;;;;;;;5056933;28;20041;-76
2022/06/24 15:03:29;;;;;;;0.20;0.20;;;;;;;;;;5056471;28;20136;-77
2022/06/24 15:05:56;;;;;;;0.28;0.28;;;;;;;;;;5056546;28;20398;-76
2022/06/24 15:08:22;;;;;;;0.43;0.43;;;;;;;;;;5057052;28;20036;-77
2022/06/24 15:10:49;;;;;;;0.47;0.47;;;;;;;;;;5056938;28;20048;-77
2022/06/24 15:13:15;;;;;;;0.65;0.65;;;;;;;;;;5056654;28;20045;-77
2022/06/24 15:15:41;;;;;;;0.30;0.30;;;;;;;;;;5056782;28;20137;-78
2022/06/24 15:18:07;;;;;;;0.30;0.30;;;;;;;;;;5056266;28;20120;-77
2022/06/24 15:20:33;;;;;;;0.35;0.35;;;;;;;;;;5055410;28;20040;-77
2022/06/24 15:23:00;;;;;;;0.10;0.10;;;;;;;;;;5055516;28;20087;-77
2022/06/24 15:25:26;;;;;;;0.10;0.10;;;;;;;;;;5056025;28;20373;-78
2022/06/24 15:27:52;;;;;;;0.35;0.35;;;;;;;;;;5056457;28;20037;-77
2022/06/24 15:30:18;;;;;;;0.43;0.43;;;;;;;;;;5055934;28;20086;-77
2022/06/24 15:32:44;;;;;;;0.20;0.20;;;;;;;;;;5055472;28;20622;-77
2022/06/24 15:35:11;;;;;;;0.20;0.20;;;;;;;;;;5054059;28;20056;-78
2022/06/24 15:37:37;;;;;;;0.25;0.25;;;;;;;;;;5054648;28;20041;-77
2022/06/24 15:40:04;;;;;;;0.20;0.20;;;;;;;;;;5054603;28;20041;-77
2022/06/24 15:42:30;;;;;;;0.17;0.17;;;;;;;;;;5051263;28;20045;-77
2022/06/24 15:44:56;;;;;;;0.20;0.20;;;;;;;;;;5053627;28;20123;-78
2022/06/24 15:47:22;;;;;;;0.28;0.20;;;;;;;;;;5055033;28;20079;-77
2022/06/24 15:49:49;;;;;;;0.10;0.10;;;;;;;;;;5055619;28;20056;-78
2022/06/24 15:52:15;;;;;;;0.30;0.30;;;;;;;;;;5055733;28;20083;-77
2022/06/24 15:54:41;;;;;;;0.30;0.30;;;;;;;;;;5055273;28;20160;-74
2022/06/24 15:57:10;;;;;;;0.10;0.10;;;;;;;;;;5053602;28;20051;-81
2022/06/24 15:59:36;;;;;;;0.10;0.10;;;;;;;;;;5044841;28;20515;-77
2022/06/24 16:02:03;;;;;;;1.45;0.55;;;;;;;;;;5053417;28;20503;-77
2022/06/24 16:04:29;;;;;;;0.10;0.10;;;;;;;;;;5056642;28;20036;-78
2022/06/24 16:06:58;;;;;;;0.10;0.10;;;;;;;;;;5055772;28;20450;-77
2022/06/24 16:09:24;;;;;;;0.30;0.30;;;;;;;;;;5056009;28;20093;-78
2022/06/24 16:14:35;;;;;;;0.10;0.10;;;;;;;;;;5055829;28;20086;-78
2022/06/24 16:17:01;;;;;;;0.20;0.20;;;;;;;;;;5070819;28;20131;-77
2022/06/24 16:19:28;;;;;;;0.20;0.20;;;;;;;;;;5074526;28;20066;-77
2022/06/24 16:21:54;;;;;;;0.10;0.10;;;;;;;;;;5075103;28;20044;-77
2022/06/24 16:24:20;;;;;;;0.10;0.10;;;;;;;;;;5055908;28;20118;-78
2022/06/24 16:29:31;;;;;;;0.13;0.13;;;;;;;;;;5055611;28;20078;-77
2022/06/24 16:31:58;;;;;;;0.22;0.22;;;;;;;;;;5056380;28;20053;-78
2022/06/24 16:34:24;;;;;;;0.10;0.10;;;;;;;;;;5056449;28;20060;-77
2022/06/24 16:36:50;;;;;;;0.10;0.10;;;;;;;;;;5055924;28;20037;-77
2022/06/24 16:39:17;;;;;;;0.63;0.38;;;;;;;;;;5055773;28;20040;-77
2022/06/24 16:41:43;;;;;;;0.10;0.10;;;;;;;;;;5056610;28;20048;-77
2022/06/24 16:44:09;;;;;;;0.20;0.20;;;;;;;;;;5047224;28;20029;-76
2022/06/24 16:46:35;;;;;;;0.20;0.20;;;;;;;;;;5038012;28;20045;-76
2022/06/24 16:49:02;;;;;;;0.10;0.10;;;;;;;;;;5045248;28;20532;-76
2022/06/24 16:51:28;;;;;;;0.20;0.20;;;;;;;;;;5046617;28;20048;-79
2022/06/24 16:53:54;;;;;;;0.10;0.10;;;;;;;;;;5054162;28;20045;-77
2022/06/24 16:56:20;;;;;;;0.38;0.17;;;;;;;;;;5054029;28;20419;-76
2022/06/24 16:58:46;;;;;;;0.20;0.20;;;;;;;;;;5054619;28;20066;-76
2022/06/24 17:01:12;;;;;;;0.10;0.10;;;;;;;;;;5053591;28;20140;-76
2022/06/24 17:03:39;;;;;;;0.10;0.10;;;;;;;;;;5054794;28;20033;-76
2022/06/24 17:06:07;;;;;;;0.10;0.10;;;;;;;;;;5054298;28;20124;-76
2022/06/24 17:08:33;;;;;;;0.20;0.20;;;;;;;;;;5054666;28;20546;-75
2022/06/24 17:11:00;;;;;;;0.10;0.10;;;;;;;;;;5054735;28;20484;-75
2022/06/24 17:13:26;;;;;;;0.10;0.10;;;;;;;;;;5055044;28;20047;-76
2022/06/24 17:15:53;;;;;;;0.10;0.10;;;;;;;;;;5053630;28;20045;-77
2022/06/24 17:18:19;;;;;;;0.15;0.15;;;;;;;;;;5050966;28;20040;-79
2022/06/24 17:20:45;;;;;;;0.10;0.10;;;;;;;;;;5053657;28;20041;-78
2022/06/24 17:23:13;;;;;;;0.20;0.20;;;;;;;;;;5052952;28;20044;-78
2022/06/24 17:25:40;;;;;;;0.30;0.30;;;;;;;;;;5053606;28;20510;-78
2022/06/24 17:28:06;;;;;;;0.17;0.17;;;;;;;;;;5053852;28;20029;-78
2022/06/24 17:30:32;;;;;;;0.20;0.20;;;;;;;;;;5053998;28;20098;-78
2022/06/24 17:32:59;;;;;;;0.20;0.20;;;;;;;;;;5054055;28;20083;-78
2022/06/24 17:35:25;;;;;;;0.80;0.63;;;;;;;;;;5053775;28;20501;-78
2022/06/24 17:37:51;;;;;;;0.10;0.10;;;;;;;;;;5053599;28;20396;-78
2022/06/24 17:40:18;;;;;;;0.10;0.10;;;;;;;;;;5053686;28;20037;-75
2022/06/24 17:42:44;;;;;;;0.10;0.10;;;;;;;;;;5052777;28;20041;-76
2022/06/24 17:45:10;;;;;;;0.10;0.10;;;;;;;;;;5054167;28;20090;-77
2022/06/24 17:47:36;;;;;;;0.35;0.35;;;;;;;;;;5054075;28;20461;-77
2022/06/24 17:50:04;;;;;;;0.10;0.10;;;;;;;;;;5054479;28;20114;-77
2022/06/24 17:52:30;;;;;;;0.10;0.10;;;;;;;;;;5054334;28;20052;-77
2022/06/24 17:54:57;;;;;;;0.28;0.28;;;;;;;;;;5053109;28;20051;-78
2022/06/24 17:57:23;;;;;;;0.57;0.20;;;;;;;;;;5053997;28;20045;-78
2022/06/24 17:59:49;;;;;;;1.55;0.55;;;;;;;;;;5053141;28;20428;-78
2022/06/24 18:02:15;;;;;;;0.10;0.10;;;;;;;;;;5053571;28;20064;-78
2022/06/24 18:04:41;;;;;;;0.10;0.10;;;;;;;;;;5053833;28;20399;-78
2022/06/24 18:07:07;;;;;;;1.25;0.57;;;;;;;;;;5053320;28;20499;-78
2022/06/24 18:09:34;;;;;;;0.10;0.10;;;;;;;;;;5054011;28;20029;-77
2022/06/24 18:12:03;;;;;;;0.20;0.20;;;;;;;;;;5054596;28;20049;-78
2022/06/24 18:14:29;;;;;;;0.10;0.10;;;;;;;;;;5033477;28;20045;-78
2022/06/24 18:16:56;;;;;;;0.10;0.10;;;;;;;;;;5033349;28;20045;-78
2022/06/24 18:19:22;;;;;;;0.10;0.10;;;;;;;;;;5033553;28;20117;-78
2022/06/24 18:21:49;;;;;;;0.20;0.20;;;;;;;;;;5033118;28;20099;-78
2022/06/24 18:24:16;;;;;;;0.10;0.10;;;;;;;;;;5033048;28;20067;-78
2022/06/24 18:26:42;;;;;;;0.10;0.10;;;;;;;;;;5033723;28;20041;-77
2022/06/24 18:29:08;;;;;;;0.10;0.10;;;;;;;;;;5033667;28;20068;-78
2022/06/24 18:31:34;;;;;;;0.30;0.30;;;;;;;;;;5033053;28;20059;-78
2022/06/24 18:34:00;;;;;;;0.10;0.10;;;;;;;;;;5033358;28;20443;-78
2022/06/24 18:36:26;;;;;;;0.10;0.10;;;;;;;;;;5033616;28;20103;-77
2022/06/24 18:38:52;;;;;;;0.20;0.20;;;;;;;;;;5032065;28;20038;-77
2022/06/24 18:41:18;;;;;;;0.10;0.10;;;;;;;;;;5033619;28;20042;-78
2022/06/24 18:43:45;;;;;;;0.20;0.20;;;;;;;;;;5033651;28;20531;-77
2022/06/24 18:46:11;;;;;;;0.10;0.10;;;;;;;;;;5032760;28;20045;-77
2022/06/24 18:48:39;;;;;;;0.10;0.10;;;;;;;;;;5045317;28;20263;-77
2022/06/24 18:51:05;;;;;;;0.10;0.10;;;;;;;;;;5050731;28;20045;-78
2022/06/24 18:53:31;;;;;;;0.10;0.10;;;;;;;;;;5052130;28;20103;-77
2022/06/24 18:55:57;;;;;;;0.10;0.10;;;;;;;;;;5053489;28;20041;-77
2022/06/24 18:58:24;;;;;;;0.17;0.17;;;;;;;;;;5053157;28;20041;-78
2022/06/24 19:00:50;;;;;;;0.10;0.10;;;;;;;;;;5052397;28;20041;-78
2022/06/24 19:03:16;;;;;;;0.10;0.10;;;;;;;;;;5053335;28;20076;-79
2022/06/24 19:05:42;;;;;;;0.43;0.43;;;;;;;;;;5053376;28;20037;-77
2022/06/24 19:08:08;;;;;;;0.10;0.10;;;;;;;;;;5052002;28;20080;-78
2022/06/24 19:10:35;;;;;;;0.10;0.10;;;;;;;;;;5055906;28;20095;-77
2022/06/24 19:13:02;;;;;;;0.20;0.20;;;;;;;;;;5056148;28;20071;-77
2022/06/24 19:15:28;;;;;;;0.10;0.10;;;;;;;;;;5056462;28;20045;-78
2022/06/24 19:17:54;;;;;;;0.10;0.10;;;;;;;;;;5056842;28;20132;-78
2022/06/24 19:20:21;;;;;;;0.10;0.10;;;;;;;;;;5056180;28;20091;-77
2022/06/24 19:22:47;;;;;;;0.10;0.10;;;;;;;;;;5055936;28;20496;-78
2022/06/24 19:25:14;;;;;;;0.10;0.10;;;;;;;;;;5056236;28;20040;-77
2022/06/24 19:27:40;;;;;;;0.10;0.10;;;;;;;;;;5056437;28;20127;-78
2022/06/24 19:30:06;;;;;;;0.20;0.20;;;;;;;;;;5056006;28;20123;-77
2022/06/24 19:32:33;;;;;;;0.10;0.10;;;;;;;;;;5056395;28;20048;-78
2022/06/24 19:34:59;;;;;;;0.10;0.10;;;;;;;;;;5055613;28;20048;-77
2022/06/24 19:37:25;;;;;;;0.10;0.10;;;;;;;;;;5055633;28;20500;-77
2022/06/24 19:39:51;;;;;;;0.25;0.25;;;;;;;;;;5055188;28;20094;-77
2022/06/24 19:42:17;;;;;;;0.10;0.10;;;;;;;;;;5056152;28;20559;-78
2022/06/24 19:44:43;;;;;;;0.17;0.17;;;;;;;;;;5055820;28;20068;-78
2022/06/24 19:47:10;;;;;;;0.10;0.10;;;;;;;;;;5055635;28;20041;-78
2022/06/24 19:49:36;;;;;;;0.10;0.10;;;;;;;;;;5056232;28;20043;-79
2022/06/24 19:52:02;;;;;;;0.10;0.10;;;;;;;;;;5054759;28;20088;-78
2022/06/24 19:54:28;;;;;;;0.28;0.28;;;;;;;;;;5056214;28;20076;-77
2022/06/24 19:56:54;;;;;;;0.10;0.10;;;;;;;;;;5054550;28;20072;-78
2022/06/24 19:59:21;;;;;;;0.20;0.20;;;;;;;;;;5048798;28;20041;-76
2022/06/24 20:07:16;;;;;;;0.10;0.10;;;;;;;;;;5034967;28;20044;-74
2022/06/24 20:09:42;;;;;;;0.10;0.10;;;;;;;;;;5034055;28;20471;-74
2022/06/24 20:12:09;;;;;;;0.20;0.20;;;;;;;;;;5035620;28;20106;-74
2022/06/24 20:14:35;;;;;;;0.10;0.10;;;;;;;;;;5035738;28;20128;-74
2022/06/24 20:17:03;;;;;;;0.20;0.20;;;;;;;;;;5034703;28;20049;-76
2022/06/24 20:19:29;;;;;;;0.10;0.10;;;;;;;;;;5035129;28;20042;-76
2022/06/24 20:21:58;;;;;;;0.20;0.20;;;;;;;;;;5034551;28;20053;-77
2022/06/24 20:24:26;;;;;;;0.10;0.10;;;;;;;;;;5035407;28;20037;-77
2022/06/24 20:26:53;;;;;;;0.10;0.10;;;;;;;;;;5035583;28;20042;-76